createdAt,value
2023-02-07T00:01:28.766Z,23.02
2023-02-07T00:03:56.555Z,18.25
2023-02-07T00:06:33.706Z,21.90
2023-02-07T00:09:03.300Z,24.77
2023-02-07T00:11:30.605Z,26.27
2023-02-07T00:13:59.496Z,20.40
2023-02-07T00:16:26.807Z,19.75
2023-02-07T00:18:55.551Z,24.15
2023-02-07T00:21:24.808Z,23.42
2023-02-07T00:23:53.752Z,19.65
2023-02-07T00:26:23.956Z,18.33
2023-02-07T00:28:54.752Z,21.80
2023-02-07T00:31:30.880Z,22.92
2023-02-07T00:34:04.357Z,22.45
2023-02-07T00:36:34.244Z,22.40
2023-02-07T00:39:06.326Z,20.83
2023-02-07T00:41:33.686Z,31.33
2023-02-07T00:44:00.722Z,31.13
2023-02-07T00:46:28.848Z,39.53
2023-02-07T00:48:55.786Z,52.30
2023-02-07T00:51:25.653Z,45.78
2023-02-07T00:53:54.277Z,46.45
2023-02-07T00:56:23.986Z,52.55
2023-02-07T00:58:51.135Z,48.50
2023-02-07T01:01:18.814Z,44.40
2023-02-07T01:03:45.879Z,43.22
2023-02-07T01:06:13.305Z,43.13
2023-02-07T01:08:40.917Z,41.25
2023-02-07T01:11:14.186Z,41.67
2023-02-07T01:13:44.043Z,45.83
2023-02-07T01:16:32.065Z,40.70
2023-02-07T01:19:03.631Z,41.47
2023-02-07T01:21:30.756Z,47.78
2023-02-07T01:23:57.659Z,46.65
2023-02-07T01:26:26.310Z,42.92
2023-02-07T01:28:55.185Z,45.20
2023-02-07T01:31:23.380Z,53.00
2023-02-07T01:33:56.053Z,55.80
2023-02-07T01:36:23.768Z,48.40
2023-02-07T01:38:53.962Z,47.45
2023-02-07T01:41:22.927Z,48.35
2023-02-07T01:44:29.229Z,47.47
2023-02-07T01:46:57.082Z,47.10
2023-02-07T01:49:35.616Z,45.83
2023-02-07T01:52:12.523Z,47.42
2023-02-07T01:54:41.396Z,45.80
2023-02-07T01:57:14.382Z,48.85
2023-02-07T01:59:44.102Z,49.42
2023-02-07T02:02:15.491Z,45.95
2023-02-07T02:04:43.097Z,52.33
2023-02-07T02:07:13.600Z,49.70
2023-02-07T02:09:40.454Z,46.95
2023-02-07T02:12:18.974Z,45.33
2023-02-07T02:15:18.228Z,48.40
2023-02-07T02:18:07.779Z,47.78
2023-02-07T02:21:17.895Z,47.75
2023-02-07T02:24:35.627Z,49.72
2023-02-07T02:27:53.775Z,56.25
2023-02-07T02:31:01.646Z,47.45
2023-02-07T02:34:07.234Z,39.38
2023-02-07T02:36:50.166Z,51.75
2023-02-07T02:39:47.897Z,45.22
2023-02-07T02:42:32.278Z,48.80
2023-02-07T02:45:17.160Z,44.88
2023-02-07T02:47:49.558Z,44.55
2023-02-07T02:50:23.343Z,40.40
2023-02-07T02:52:51.416Z,44.30
2023-02-07T02:55:57.489Z,43.97
2023-02-07T02:58:53.289Z,42.85
2023-02-07T03:01:52.555Z,46.45
2023-02-07T03:05:06.475Z,43.75
2023-02-07T03:07:51.431Z,44.78
2023-02-07T03:10:49.994Z,42.05
2023-02-07T03:22:25.941Z,35.38
2023-02-07T03:29:05.434Z,33.28
2023-02-07T03:31:52.543Z,36.35
2023-02-07T03:35:08.343Z,39.63
2023-02-07T03:37:47.706Z,41.87
2023-02-07T03:40:21.784Z,44.10
2023-02-07T03:43:36.749Z,40.70
2023-02-07T03:46:08.682Z,49.28
2023-02-07T03:48:37.718Z,40.22
2023-02-07T03:51:06.774Z,44.42
2023-02-07T03:53:35.278Z,53.30
2023-02-07T03:56:03.111Z,45.78
2023-02-07T03:58:30.321Z,43.85
2023-02-07T04:00:58.199Z,44.55
2023-02-07T04:03:27.347Z,52.50
2023-02-07T04:05:55.692Z,37.67
2023-02-07T04:08:23.509Z,44.22
2023-02-07T04:11:02.690Z,41.13
2023-02-07T04:13:31.954Z,41.22
2023-02-07T04:16:01.120Z,37.47
2023-02-07T04:18:30.532Z,41.53
2023-02-07T04:21:12.274Z,35.35
2023-02-07T04:23:40.833Z,35.88
2023-02-07T04:26:14.218Z,39.08
2023-02-07T04:28:44.564Z,32.60
2023-02-07T04:31:14.400Z,39.47
2023-02-07T04:33:45.383Z,36.53
2023-02-07T04:36:17.695Z,37.40
2023-02-07T04:38:50.985Z,33.70
2023-02-07T04:41:21.721Z,37.13
2023-02-07T04:43:54.242Z,46.28
2023-02-07T04:46:24.890Z,31.60
2023-02-07T04:48:57.288Z,38.55
2023-02-07T04:51:31.121Z,41.40
2023-02-07T04:54:02.070Z,38.35
2023-02-07T04:56:37.767Z,34.78
2023-02-07T04:59:16.568Z,36.13
2023-02-07T05:01:47.715Z,36.38
2023-02-07T05:04:21.586Z,40.08
2023-02-07T05:06:55.368Z,38.72
2023-02-07T05:09:26.272Z,37.03
2023-02-07T05:11:57.871Z,43.28
2023-02-07T05:14:32.107Z,40.97
2023-02-07T05:17:03.400Z,44.13
2023-02-07T05:19:36.624Z,46.70
2023-02-07T05:22:12.699Z,41.05
2023-02-07T05:24:53.270Z,44.40
2023-02-07T05:27:29.780Z,39.65
2023-02-07T05:30:06.162Z,36.83
2023-02-07T05:32:56.122Z,39.60
2023-02-07T05:35:30.040Z,39.22
2023-02-07T05:38:09.034Z,43.95
2023-02-07T05:40:42.137Z,44.53
2023-02-07T05:43:15.730Z,43.70
2023-02-07T05:45:49.205Z,39.83
2023-02-07T05:48:24.591Z,44.85
2023-02-07T05:50:53.120Z,43.97
2023-02-07T05:53:19.956Z,46.05
2023-02-07T05:55:53.757Z,44.63
2023-02-07T05:58:23.603Z,44.25
2023-02-07T06:00:50.685Z,40.92
2023-02-07T06:03:17.609Z,44.22
2023-02-07T06:05:44.554Z,46.10
2023-02-07T06:08:11.394Z,38.97
2023-02-07T06:10:38.427Z,38.90
2023-02-07T06:13:05.414Z,39.20
2023-02-07T06:15:32.519Z,48.17
2023-02-07T06:17:59.414Z,43.22
2023-02-07T06:20:26.255Z,40.63
2023-02-07T06:22:53.351Z,39.75
2023-02-07T06:25:57.736Z,46.85
2023-02-07T06:28:24.630Z,36.53
2023-02-07T06:30:53.166Z,41.97
2023-02-07T06:33:20.694Z,38.90
2023-02-07T06:35:47.681Z,49.38
2023-02-07T06:38:16.740Z,41.70
2023-02-07T06:40:45.073Z,44.15
2023-02-07T06:43:12.504Z,36.92
2023-02-07T06:45:39.689Z,42.00
2023-02-07T06:48:08.075Z,43.15
2023-02-07T06:50:35.031Z,37.38
2023-02-07T06:53:02.295Z,42.28
2023-02-07T06:55:36.564Z,42.72
2023-02-07T06:58:04.195Z,41.22
2023-02-07T07:00:31.443Z,34.28
2023-02-07T07:03:00.223Z,39.60
2023-02-07T07:05:29.203Z,48.90
2023-02-07T07:07:57.215Z,40.95
2023-02-07T07:10:24.608Z,44.83
2023-02-07T07:12:51.585Z,43.40
2023-02-07T07:15:18.489Z,42.65
2023-02-07T07:17:45.366Z,44.22
2023-02-07T07:20:12.921Z,39.63
2023-02-07T07:22:39.872Z,43.35
2023-02-07T07:25:07.175Z,40.28
2023-02-07T07:27:34.732Z,33.35
2023-02-07T07:30:01.701Z,31.60
2023-02-07T07:32:34.203Z,28.08
2023-02-07T07:35:03.043Z,28.25
2023-02-07T07:37:30.505Z,31.98
2023-02-07T07:39:57.758Z,33.03
2023-02-07T07:42:24.662Z,28.73
2023-02-07T07:45:13.463Z,38.85
2023-02-07T07:47:40.754Z,34.28
2023-02-07T07:50:08.772Z,38.00
2023-02-07T07:52:39.379Z,34.13
2023-02-07T07:55:07.012Z,34.25
2023-02-07T07:57:34.050Z,30.10
2023-02-07T08:00:00.980Z,33.35
2023-02-07T08:02:28.131Z,26.60
2023-02-07T08:04:54.956Z,27.65
2023-02-07T08:07:21.879Z,28.20
2023-02-07T08:09:48.750Z,31.52
2023-02-07T08:12:15.570Z,33.22
2023-02-07T08:14:42.400Z,34.47
2023-02-07T08:17:09.352Z,31.50
2023-02-07T08:19:38.229Z,34.88
2023-02-07T08:22:05.311Z,37.03
2023-02-07T08:24:33.870Z,41.53
2023-02-07T08:27:00.761Z,35.38
2023-02-07T08:29:27.722Z,37.33
2023-02-07T08:31:54.646Z,36.03
2023-02-07T08:34:26.118Z,41.35
2023-02-07T08:36:53.359Z,41.10
2023-02-07T08:39:20.758Z,36.20
2023-02-07T08:41:47.902Z,34.42
2023-02-07T08:44:15.055Z,33.55
2023-02-07T08:46:42.603Z,36.35
2023-02-07T08:49:09.649Z,35.45
2023-02-07T08:51:36.561Z,33.65
2023-02-07T08:54:03.742Z,31.73
2023-02-07T08:56:31.412Z,32.63
2023-02-07T08:58:58.801Z,31.95
2023-02-07T09:01:27.186Z,30.17
2023-02-07T09:03:58.389Z,28.67
2023-02-07T09:06:28.176Z,27.38
2023-02-07T09:08:56.263Z,27.92
2023-02-07T09:11:23.335Z,31.63
2023-02-07T09:13:50.306Z,25.42
2023-02-07T09:16:17.232Z,28.88
2023-02-07T09:18:44.393Z,27.45
2023-02-07T09:21:11.333Z,23.95
2023-02-07T09:23:38.458Z,21.30
2023-02-07T09:26:09.190Z,22.17
2023-02-07T09:28:36.568Z,18.52
2023-02-07T09:31:11.994Z,17.98
2023-02-07T09:33:39.423Z,25.13
2023-02-07T09:36:20.308Z,22.88
2023-02-07T09:38:47.628Z,20.23
2023-02-07T09:41:26.789Z,22.92
2023-02-07T09:44:21.083Z,18.83
2023-02-07T09:47:14.725Z,16.73
2023-02-07T09:49:56.587Z,18.25
2023-02-07T09:52:33.541Z,17.65
2023-02-07T09:55:04.646Z,15.82
2023-02-07T09:57:44.271Z,14.45
2023-02-07T10:00:26.902Z,16.83
2023-02-07T10:03:15.344Z,27.63
2023-02-07T10:06:17.534Z,14.90
2023-02-07T10:08:51.936Z,17.15
2023-02-07T10:11:48.539Z,14.75
2023-02-07T10:14:55.717Z,15.45
2023-02-07T10:17:39.727Z,14.10
2023-02-07T10:20:47.501Z,14.68
2023-02-07T10:23:49.974Z,13.20
2023-02-07T10:26:37.781Z,12.63
2023-02-07T10:29:31.518Z,10.93
2023-02-07T10:32:31.951Z,12.82
2023-02-07T10:35:37.191Z,11.32
2023-02-07T10:38:15.893Z,9.60
2023-02-07T10:40:53.738Z,9.57
2023-02-07T10:43:32.677Z,10.65
2023-02-07T10:46:09.992Z,11.32
2023-02-07T10:48:39.138Z,14.88
2023-02-07T10:51:41.816Z,10.32
2023-02-07T10:54:20.824Z,7.93
2023-02-07T10:56:53.606Z,10.98
2023-02-07T10:59:36.043Z,7.75
2023-02-07T11:02:37.337Z,8.55
2023-02-07T11:05:16.409Z,8.55
2023-02-07T11:08:04.082Z,7.18
2023-02-07T11:10:44.278Z,9.50
2023-02-07T11:13:20.168Z,7.30
2023-02-07T11:16:07.212Z,11.27
2023-02-07T11:18:45.037Z,8.00
2023-02-07T11:21:33.046Z,7.63
2023-02-07T11:24:06.306Z,9.32
2023-02-07T11:26:39.834Z,10.27
2023-02-07T11:29:20.371Z,8.90
2023-02-07T11:31:51.133Z,7.07
2023-02-07T11:34:50.703Z,20.88
2023-02-07T11:37:17.548Z,10.00
2023-02-07T11:39:46.129Z,10.23
2023-02-07T11:42:24.308Z,8.63
2023-02-07T11:44:52.441Z,10.45
2023-02-07T11:47:30.937Z,24.63
2023-02-07T11:50:03.227Z,10.40
2023-02-07T11:52:37.177Z,7.18
2023-02-07T11:55:23.217Z,10.15
2023-02-07T11:57:50.366Z,8.25
2023-02-07T12:00:27.738Z,9.50
2023-02-07T12:03:18.478Z,7.43
2023-02-07T12:05:51.744Z,11.82
2023-02-07T12:08:27.155Z,5.90
2023-02-07T12:11:00.740Z,7.18
2023-02-07T12:13:35.533Z,6.75
2023-02-07T12:16:05.573Z,7.38
2023-02-07T12:18:47.719Z,6.93
2023-02-07T12:21:23.156Z,7.38
2023-02-07T12:24:07.181Z,6.32
2023-02-07T12:26:47.016Z,7.57
2023-02-07T12:29:50.334Z,5.70
2023-02-07T12:32:33.889Z,7.75
2023-02-07T12:35:19.569Z,9.45
2023-02-07T12:37:54.631Z,6.68
2023-02-07T12:43:03.598Z,11.38
2023-02-07T12:45:52.369Z,9.95
2023-02-07T12:48:58.947Z,6.10
2023-02-07T12:52:09.953Z,6.88
2023-02-07T12:55:09.063Z,7.03
2023-02-07T12:58:07.446Z,6.15
2023-02-07T13:01:11.878Z,8.30
2023-02-07T13:04:02.926Z,5.43
2023-02-07T13:06:39.632Z,8.23
2023-02-07T13:09:16.589Z,10.98
2023-02-07T13:12:18.191Z,6.03
2023-02-07T13:14:54.209Z,7.13
2023-02-07T13:17:40.905Z,5.65
2023-02-07T13:20:11.130Z,8.35
2023-02-07T13:22:57.555Z,8.85
2023-02-07T13:25:47.957Z,7.15
2023-02-07T13:28:59.244Z,9.68
2023-02-07T13:31:40.917Z,6.70
2023-02-07T13:34:27.181Z,7.00
2023-02-07T13:36:55.245Z,5.55
2023-02-07T13:39:58.229Z,6.75
2023-02-07T13:42:36.041Z,10.43
2023-02-07T13:45:51.051Z,8.05
2023-02-07T13:48:41.198Z,9.27
2023-02-07T13:51:51.756Z,6.50
2023-02-07T13:54:43.325Z,6.95
2023-02-07T13:57:53.688Z,8.00
2023-02-07T14:00:28.035Z,6.18
2023-02-07T14:03:06.455Z,5.88
2023-02-07T14:05:39.729Z,6.30
2023-02-07T14:08:25.047Z,5.20
2023-02-07T14:10:57.348Z,6.65
2023-02-07T14:13:27.316Z,7.28
2023-02-07T14:16:09.672Z,6.05
2023-02-07T14:18:51.670Z,5.43
2023-02-07T14:21:23.379Z,9.90
2023-02-07T14:24:09.061Z,8.02
2023-02-07T14:26:39.211Z,9.25
2023-02-07T14:29:53.030Z,7.38
2023-02-07T14:32:19.792Z,6.40
2023-02-07T14:35:04.867Z,7.63
2023-02-07T14:38:02.150Z,7.07
2023-02-07T14:41:01.855Z,8.07
2023-02-07T14:44:08.613Z,6.65
2023-02-07T14:46:42.964Z,5.03
2023-02-07T14:49:26.894Z,7.22
2023-02-07T14:52:02.170Z,5.35
2023-02-07T14:54:53.199Z,5.03
2023-02-07T14:57:47.182Z,6.72
2023-02-07T15:00:14.038Z,8.55
2023-02-07T15:02:51.781Z,6.68
2023-02-07T15:05:28.295Z,5.13
2023-02-07T15:08:03.977Z,7.93
2023-02-07T15:10:52.517Z,5.72
2023-02-07T15:13:32.575Z,6.32
2023-02-07T15:16:20.512Z,9.20
2023-02-07T15:18:57.235Z,8.27
2023-02-07T15:21:46.303Z,6.28
2023-02-07T15:24:17.904Z,6.43
2023-02-07T15:26:50.640Z,9.57
2023-02-07T15:29:28.079Z,8.68
2023-02-07T15:31:55.092Z,9.40
2023-02-07T15:34:31.614Z,9.15
2023-02-07T15:37:19.305Z,8.15
2023-02-07T15:39:47.405Z,9.85
2023-02-07T15:42:18.699Z,10.48
2023-02-07T15:44:58.221Z,5.47
2023-02-07T15:47:27.864Z,10.88
2023-02-07T15:50:23.395Z,8.77
2023-02-07T15:52:55.686Z,7.45
2023-02-07T15:55:48.466Z,7.85
2023-02-07T15:58:36.638Z,6.97
2023-02-07T16:01:25.596Z,10.20
2023-02-07T16:03:57.036Z,7.15
2023-02-07T16:06:27.812Z,8.35
2023-02-07T16:08:59.194Z,9.50
2023-02-07T16:11:26.013Z,8.55
2023-02-07T16:14:16.788Z,7.97
2023-02-07T16:16:56.840Z,9.73
2023-02-07T16:19:31.840Z,7.43
2023-02-07T16:24:40.980Z,8.20
2023-02-07T16:27:20.018Z,8.02
2023-02-07T16:29:47.855Z,7.95
2023-02-07T16:32:16.909Z,7.72
2023-02-07T16:34:58.930Z,9.70
2023-02-07T16:37:28.008Z,10.68
2023-02-07T16:39:55.009Z,12.57
2023-02-07T16:42:21.983Z,15.20
2023-02-07T16:44:49.033Z,13.20
2023-02-07T16:48:13.812Z,13.43
2023-02-07T16:50:41.014Z,13.20
2023-02-07T16:53:08.256Z,12.27
2023-02-07T16:55:39.041Z,11.68
2023-02-07T16:58:07.476Z,14.95
2023-02-07T17:00:58.023Z,10.75
2023-02-07T17:03:26.382Z,14.23
2023-02-07T17:05:53.328Z,21.42
2023-02-07T17:08:30.978Z,11.13
2023-02-07T17:11:06.078Z,13.85
2023-02-07T17:13:35.457Z,14.05
2023-02-07T17:16:03.925Z,18.23
2023-02-07T17:18:33.789Z,13.48
2023-02-07T17:21:05.765Z,10.80
2023-02-07T17:23:37.883Z,14.65
2023-02-07T17:26:40.620Z,12.50
2023-02-07T17:29:22.634Z,13.05
2023-02-07T17:32:00.488Z,13.35
2023-02-07T17:34:36.975Z,14.15
2023-02-07T17:37:19.520Z,14.80
2023-02-07T17:39:59.731Z,16.30
2023-02-07T17:42:37.188Z,16.52
2023-02-07T17:45:14.548Z,12.70
2023-02-07T17:47:50.254Z,12.68
2023-02-07T17:52:56.669Z,13.00
2023-02-07T17:55:27.985Z,12.35
2023-02-07T17:58:00.447Z,14.40
2023-02-07T18:00:38.093Z,13.38
2023-02-07T18:03:09.976Z,12.48
2023-02-07T18:05:43.605Z,12.60
2023-02-07T18:08:16.896Z,17.77
2023-02-07T18:10:51.670Z,12.23
2023-02-07T18:13:22.824Z,13.30
2023-02-07T18:15:53.474Z,12.77
2023-02-07T18:18:25.230Z,14.63
2023-02-07T18:20:56.021Z,14.02
2023-02-07T18:23:25.845Z,15.38
2023-02-07T18:25:55.584Z,29.13
2023-02-07T18:28:24.776Z,16.80
2023-02-07T18:30:53.971Z,18.20
2023-02-07T18:33:24.849Z,13.18
2023-02-07T18:35:59.054Z,13.50
2023-02-07T18:38:29.870Z,16.83
2023-02-07T18:40:59.047Z,22.30
2023-02-07T18:43:30.789Z,36.47
2023-02-07T18:46:01.086Z,19.13
2023-02-07T18:48:30.684Z,16.80
2023-02-07T18:50:59.851Z,17.83
2023-02-07T18:53:29.024Z,18.77
2023-02-07T18:56:07.479Z,15.52
2023-02-07T18:58:36.730Z,13.88
2023-02-07T19:01:11.530Z,16.83
2023-02-07T19:03:42.541Z,17.27
2023-02-07T19:06:11.925Z,16.98
2023-02-07T19:08:42.402Z,17.17
2023-02-07T19:11:11.703Z,17.13
2023-02-07T19:13:40.677Z,15.27
2023-02-07T19:16:24.901Z,17.55
2023-02-07T19:18:53.983Z,13.17
2023-02-07T19:21:27.562Z,17.23
2023-02-07T19:24:00.273Z,13.45
2023-02-07T19:26:29.598Z,18.02
2023-02-07T19:29:00.826Z,19.00
2023-02-07T19:31:29.674Z,15.02
2023-02-07T19:34:00.241Z,16.63
2023-02-07T19:36:30.915Z,17.50
2023-02-07T19:38:59.858Z,15.40
2023-02-07T19:41:29.949Z,20.15
2023-02-07T19:43:58.528Z,19.40
2023-02-07T19:46:27.768Z,19.27
2023-02-07T19:48:55.457Z,21.45
2023-02-07T19:51:27.646Z,20.77
2023-02-07T19:53:57.273Z,21.10
2023-02-07T19:56:28.283Z,21.25
2023-02-07T19:58:56.303Z,17.88
2023-02-07T20:01:26.240Z,18.50
2023-02-07T20:03:55.784Z,21.23
2023-02-07T20:06:31.482Z,23.42
2023-02-07T20:09:03.494Z,19.05
2023-02-07T20:11:31.619Z,26.00
2023-02-07T20:14:04.150Z,24.48
2023-02-07T20:16:36.065Z,25.10
2023-02-07T20:19:07.525Z,24.08
2023-02-07T20:21:37.993Z,25.00
2023-02-07T20:24:06.134Z,24.25
2023-02-07T20:26:40.436Z,25.70
2023-02-07T20:29:15.017Z,21.52
2023-02-07T20:31:44.260Z,25.08
2023-02-07T20:34:16.122Z,26.90
2023-02-07T20:36:44.676Z,21.65
2023-02-07T20:39:17.290Z,19.50
2023-02-07T20:41:47.715Z,21.85
2023-02-07T20:44:22.927Z,20.92
2023-02-07T20:46:54.768Z,20.83
2023-02-07T20:49:31.519Z,23.55
2023-02-07T20:52:02.780Z,25.63
2023-02-07T20:54:35.064Z,22.48
2023-02-07T20:57:06.037Z,20.70
2023-02-07T20:59:35.321Z,18.55
2023-02-07T21:02:15.122Z,20.15
2023-02-07T21:04:50.134Z,20.02
2023-02-07T21:07:23.318Z,23.85
2023-02-07T21:09:55.618Z,19.17
2023-02-07T21:12:27.403Z,23.40
2023-02-07T21:14:58.440Z,20.23
2023-02-07T21:17:28.430Z,24.60
2023-02-07T21:19:58.421Z,27.10
2023-02-07T21:22:29.679Z,20.65
2023-02-07T21:24:58.530Z,22.98
2023-02-07T21:27:28.274Z,22.67
2023-02-07T21:29:57.172Z,23.70
2023-02-07T21:32:25.349Z,22.75
2023-02-07T21:34:53.485Z,27.52
2023-02-07T21:37:21.409Z,21.98
2023-02-07T21:39:50.219Z,21.50
2023-02-07T21:42:18.260Z,26.25
2023-02-07T21:44:45.968Z,23.55
2023-02-07T21:47:14.177Z,25.65
2023-02-07T21:49:41.774Z,26.27
2023-02-07T21:52:11.062Z,23.75
2023-02-07T21:54:38.698Z,23.45
2023-02-07T21:57:06.603Z,24.05
2023-02-07T21:59:34.471Z,24.23
2023-02-07T22:02:02.711Z,27.55
2023-02-07T22:04:30.224Z,27.58
2023-02-07T22:06:57.551Z,24.00
2023-02-07T22:09:25.235Z,22.20
2023-02-07T22:11:54.649Z,24.00
2023-02-07T22:14:25.057Z,22.25
2023-02-07T22:16:54.629Z,21.75
2023-02-07T22:19:22.939Z,22.90
2023-02-07T22:21:51.072Z,21.83
2023-02-07T22:24:20.252Z,23.45
2023-02-07T22:26:48.040Z,19.75
2023-02-07T22:29:15.703Z,23.98
2023-02-07T22:31:49.725Z,20.15
2023-02-07T22:34:19.343Z,20.65
2023-02-07T22:36:47.476Z,21.73
2023-02-07T22:39:18.395Z,25.85
2023-02-07T22:41:47.922Z,21.92
2023-02-07T22:44:17.245Z,25.00
2023-02-07T22:46:45.663Z,23.35
2023-02-07T22:49:14.585Z,28.65
2023-02-07T22:51:42.680Z,24.05
2023-02-07T22:54:17.817Z,23.67
2023-02-07T22:56:46.987Z,26.90
2023-02-07T22:59:15.493Z,25.33
2023-02-07T23:01:48.253Z,24.35
2023-02-07T23:04:18.378Z,22.90
2023-02-07T23:06:46.913Z,27.27
2023-02-07T23:09:14.704Z,22.25
2023-02-07T23:11:41.787Z,22.95
2023-02-07T23:14:09.177Z,26.92
2023-02-07T23:16:37.631Z,27.60
2023-02-07T23:19:11.078Z,23.92
2023-02-07T23:21:39.212Z,22.00
2023-02-07T23:24:07.267Z,23.25
2023-02-07T23:26:35.662Z,22.38
2023-02-07T23:29:05.289Z,22.80
2023-02-07T23:31:33.979Z,24.33
2023-02-07T23:34:01.252Z,23.50
2023-02-07T23:36:28.487Z,24.52
2023-02-07T23:38:58.505Z,23.83
2023-02-07T23:41:25.696Z,28.58
2023-02-07T23:43:53.194Z,26.63
2023-02-07T23:46:20.784Z,24.70
2023-02-07T23:48:47.745Z,29.17
2023-02-07T23:51:15.703Z,26.13
2023-02-07T23:53:43.814Z,24.67
2023-02-07T23:56:17.305Z,23.77
2023-02-07T23:58:45.431Z,26.73
